sensor_id;sensor_type;location;lat;lon;timestamp;pressure;altitude;pressure_sealevel;temperature;humidity
71107;BME280;58763;47.982;11.516;2023-02-20T00:01:29;95146.28;;;6.22;75.54
71107;BME280;58763;47.982;11.516;2023-02-20T00:03:55;95143.22;;;6.07;76.77
71107;BME280;58763;47.982;11.516;2023-02-20T00:06:21;95147.56;;;6.08;76.11
71107;BME280;58763;47.982;11.516;2023-02-20T00:08:46;95143.94;;;6.14;75.82
71107;BME280;58763;47.982;11.516;2023-02-20T00:11:12;95155.97;;;6.00;75.55
71107;BME280;58763;47.982;11.516;2023-02-20T00:13:37;95149.75;;;5.88;76.51
71107;BME280;58763;47.982;11.516;2023-02-20T00:16:03;95165.88;;;6.00;75.90
71107;BME280;58763;47.982;11.516;2023-02-20T00:18:29;95160.88;;;6.03;75.07
71107;BME280;58763;47.982;11.516;2023-02-20T00:20:55;95155.97;;;6.00;75.35
71107;BME280;58763;47.982;11.516;2023-02-20T00:23:20;95155.75;;;6.02;74.73
71107;BME280;58763;47.982;11.516;2023-02-20T00:25:46;95161.00;;;5.97;74.99
71107;BME280;58763;47.982;11.516;2023-02-20T00:28:12;95169.88;;;5.97;75.08
71107;BME280;58763;47.982;11.516;2023-02-20T00:30:38;95160.63;;;5.93;75.20
71107;BME280;58763;47.982;11.516;2023-02-20T00:33:04;95166.56;;;5.95;75.16
71107;BME280;58763;47.982;11.516;2023-02-20T00:35:29;95158.31;;;5.97;75.15
71107;BME280;58763;47.982;11.516;2023-02-20T00:37:55;95161.69;;;5.92;74.96
71107;BME280;58763;47.982;11.516;2023-02-20T00:40:23;95154.69;;;5.91;74.27
71107;BME280;58763;47.982;11.516;2023-02-20T00:42:49;95151.28;;;5.96;74.20
71107;BME280;58763;47.982;11.516;2023-02-20T00:45:17;95168.09;;;5.91;74.11
71107;BME280;58763;47.982;11.516;2023-02-20T00:47:43;95164.25;;;5.87;74.83
71107;BME280;58763;47.982;11.516;2023-02-20T00:50:09;95157.22;;;5.86;74.77
71107;BME280;58763;47.982;11.516;2023-02-20T00:52:36;95159.13;;;5.86;74.99
71107;BME280;58763;47.982;11.516;2023-02-20T00:55:04;95155.00;;;5.83;75.05
71107;BME280;58763;47.982;11.516;2023-02-20T00:57:30;95167.84;;;5.93;74.84
71107;BME280;58763;47.982;11.516;2023-02-20T00:59:56;95157.94;;;5.93;74.83
71107;BME280;58763;47.982;11.516;2023-02-20T01:02:22;95155.25;;;5.93;74.67
71107;BME280;58763;47.982;11.516;2023-02-20T01:04:47;95151.06;;;5.86;75.04
71107;BME280;58763;47.982;11.516;2023-02-20T01:07:13;95154.22;;;5.94;75.07
71107;BME280;58763;47.982;11.516;2023-02-20T01:09:38;95157.03;;;5.99;74.86
71107;BME280;58763;47.982;11.516;2023-02-20T01:12:04;95162.28;;;5.94;75.04
71107;BME280;58763;47.982;11.516;2023-02-20T01:14:30;95151.53;;;5.94;75.61
71107;BME280;58763;47.982;11.516;2023-02-20T01:16:55;95155.47;;;5.80;75.81
71107;BME280;58763;47.982;11.516;2023-02-20T01:19:22;95149.63;;;5.72;76.52
71107;BME280;58763;47.982;11.516;2023-02-20T01:21:49;95150.53;;;5.66;76.70
71107;BME280;58763;47.982;11.516;2023-02-20T01:24:15;95159.06;;;5.74;76.49
71107;BME280;58763;47.982;11.516;2023-02-20T01:26:43;95156.63;;;5.73;76.53
71107;BME280;58763;47.982;11.516;2023-02-20T01:29:09;95156.72;;;5.66;76.30
71107;BME280;58763;47.982;11.516;2023-02-20T01:31:35;95157.31;;;5.68;76.87
71107;BME280;58763;47.982;11.516;2023-02-20T01:34:02;95153.91;;;5.61;77.13
71107;BME280;58763;47.982;11.516;2023-02-20T01:36:28;95154.63;;;5.68;77.03
71107;BME280;58763;47.982;11.516;2023-02-20T01:38:53;95165.72;;;5.72;76.44
71107;BME280;58763;47.982;11.516;2023-02-20T01:41:19;95157.06;;;5.70;75.99
71107;BME280;58763;47.982;11.516;2023-02-20T01:43:45;95148.09;;;5.64;76.88
71107;BME280;58763;47.982;11.516;2023-02-20T01:49:03;95147.28;;;5.64;76.53
71107;BME280;58763;47.982;11.516;2023-02-20T01:51:35;95151.81;;;5.63;77.00
71107;BME280;58763;47.982;11.516;2023-02-20T01:54:08;95151.00;;;5.63;76.32
71107;BME280;58763;47.982;11.516;2023-02-20T01:56:36;95147.50;;;5.62;76.29
71107;BME280;58763;47.982;11.516;2023-02-20T01:59:03;95145.03;;;5.60;76.70
71107;BME280;58763;47.982;11.516;2023-02-20T02:01:32;95144.25;;;5.60;77.10
71107;BME280;58763;47.982;11.516;2023-02-20T02:04:00;95139.47;;;5.62;77.09
71107;BME280;58763;47.982;11.516;2023-02-20T02:06:28;95133.38;;;5.55;77.55
71107;BME280;58763;47.982;11.516;2023-02-20T02:08:55;95130.84;;;5.60;77.52
71107;BME280;58763;47.982;11.516;2023-02-20T02:11:24;95126.38;;;5.54;76.91
71107;BME280;58763;47.982;11.516;2023-02-20T02:13:50;95131.19;;;5.64;76.56
71107;BME280;58763;47.982;11.516;2023-02-20T02:43:49;95117.28;;;5.55;76.78
71107;BME280;58763;47.982;11.516;2023-02-20T02:48:51;95104.22;;;5.58;76.99
71107;BME280;58763;47.982;11.516;2023-02-20T02:51:24;95101.78;;;5.57;77.10
71107;BME280;58763;47.982;11.516;2023-02-20T02:54:08;95109.13;;;5.50;76.79
71107;BME280;58763;47.982;11.516;2023-02-20T02:56:42;95104.78;;;5.37;77.42
71107;BME280;58763;47.982;11.516;2023-02-20T02:59:21;95107.13;;;5.34;77.67
71107;BME280;58763;47.982;11.516;2023-02-20T03:01:55;95108.41;;;5.31;77.41
71107;BME280;58763;47.982;11.516;2023-02-20T03:04:27;95109.31;;;5.37;77.71
71107;BME280;58763;47.982;11.516;2023-02-20T03:06:58;95110.84;;;5.33;77.43
71107;BME280;58763;47.982;11.516;2023-02-20T03:09:34;95104.44;;;5.34;77.61
71107;BME280;58763;47.982;11.516;2023-02-20T03:12:03;95106.41;;;5.27;77.84
71107;BME280;58763;47.982;11.516;2023-02-20T03:14:38;95099.75;;;5.29;77.95
71107;BME280;58763;47.982;11.516;2023-02-20T03:17:30;95111.19;;;5.25;77.73
71107;BME280;58763;47.982;11.516;2023-02-20T03:19:59;95098.91;;;5.17;78.05
71107;BME280;58763;47.982;11.516;2023-02-20T03:22:28;95103.00;;;5.20;78.32
71107;BME280;58763;47.982;11.516;2023-02-20T03:25:17;95104.63;;;5.21;78.20
71107;BME280;58763;47.982;11.516;2023-02-20T03:30:23;95114.66;;;5.25;77.64
71107;BME280;58763;47.982;11.516;2023-02-20T03:32:57;95112.66;;;5.21;78.00
71107;BME280;58763;47.982;11.516;2023-02-20T03:35:46;95105.56;;;5.15;78.29
71107;BME280;58763;47.982;11.516;2023-02-20T03:38:34;95102.16;;;5.08;78.28
71107;BME280;58763;47.982;11.516;2023-02-20T03:41:21;95111.84;;;5.09;78.50
71107;BME280;58763;47.982;11.516;2023-02-20T03:44:06;95113.31;;;5.05;78.46
71107;BME280;58763;47.982;11.516;2023-02-20T03:46:36;95100.41;;;5.02;78.30
71107;BME280;58763;47.982;11.516;2023-02-20T03:49:07;95100.41;;;5.02;78.31
71107;BME280;58763;47.982;11.516;2023-02-20T03:51:35;95098.38;;;4.97;78.34
71107;BME280;58763;47.982;11.516;2023-02-20T03:54:00;95100.63;;;5.00;78.43
71107;BME280;58763;47.982;11.516;2023-02-20T03:56:40;95096.19;;;4.94;78.57
71107;BME280;58763;47.982;11.516;2023-02-20T03:59:20;95096.03;;;4.89;78.83
71107;BME280;58763;47.982;11.516;2023-02-20T04:01:51;95103.13;;;4.83;78.71
71107;BME280;58763;47.982;11.516;2023-02-20T04:04:24;95105.59;;;4.85;78.71
71107;BME280;58763;47.982;11.516;2023-02-20T04:06:53;95106.38;;;4.85;78.85
71107;BME280;58763;47.982;11.516;2023-02-20T04:09:25;95112.44;;;4.81;78.96
71107;BME280;58763;47.982;11.516;2023-02-20T04:11:57;95109.69;;;4.87;78.74
71107;BME280;58763;47.982;11.516;2023-02-20T04:14:25;95107.25;;;4.98;78.26
71107;BME280;58763;47.982;11.516;2023-02-20T04:16:57;95105.28;;;5.05;77.43
71107;BME280;58763;47.982;11.516;2023-02-20T04:19:26;95112.09;;;5.19;77.18
71107;BME280;58763;47.982;11.516;2023-02-20T04:21:54;95109.75;;;5.11;77.45
71107;BME280;58763;47.982;11.516;2023-02-20T04:24:48;95106.28;;;5.22;77.15
71107;BME280;58763;47.982;11.516;2023-02-20T04:27:17;95116.78;;;5.35;76.37
71107;BME280;58763;47.982;11.516;2023-02-20T04:29:44;95116.66;;;5.41;76.20
71107;BME280;58763;47.982;11.516;2023-02-20T04:32:10;95116.22;;;5.44;75.73
71107;BME280;58763;47.982;11.516;2023-02-20T04:34:36;95104.88;;;5.31;76.20
71107;BME280;58763;47.982;11.516;2023-02-20T04:39:30;95105.59;;;5.38;75.82
71107;BME280;58763;47.982;11.516;2023-02-20T04:41:56;95113.09;;;5.47;75.52
71107;BME280;58763;47.982;11.516;2023-02-20T04:44:21;95117.84;;;5.34;76.18
71107;BME280;58763;47.982;11.516;2023-02-20T04:47:01;95111.06;;;5.31;75.80
71107;BME280;58763;47.982;11.516;2023-02-20T04:49:28;95104.88;;;5.19;76.48
71107;BME280;58763;47.982;11.516;2023-02-20T04:51:54;95105.38;;;4.98;77.27
71107;BME280;58763;47.982;11.516;2023-02-20T04:54:20;95094.81;;;4.73;78.08
71107;BME280;58763;47.982;11.516;2023-02-20T04:56:46;95100.63;;;4.70;78.20
71107;BME280;58763;47.982;11.516;2023-02-20T04:59:12;95101.16;;;4.61;78.68
71107;BME280;58763;47.982;11.516;2023-02-20T05:01:38;95100.81;;;4.57;79.04
71107;BME280;58763;47.982;11.516;2023-02-20T05:04:03;95103.34;;;4.52;79.26
71107;BME280;58763;47.982;11.516;2023-02-20T05:06:29;95103.13;;;4.54;79.46
71107;BME280;58763;47.982;11.516;2023-02-20T05:08:55;95091.66;;;4.47;79.56
71107;BME280;58763;47.982;11.516;2023-02-20T05:11:21;95088.63;;;4.43;79.77
71107;BME280;58763;47.982;11.516;2023-02-20T05:13:46;95091.28;;;4.61;78.89
71107;BME280;58763;47.982;11.516;2023-02-20T05:16:12;95093.41;;;4.71;77.96
71107;BME280;58763;47.982;11.516;2023-02-20T05:18:38;95091.00;;;4.81;77.82
71107;BME280;58763;47.982;11.516;2023-02-20T05:21:04;95095.31;;;4.82;77.47
71107;BME280;58763;47.982;11.516;2023-02-20T05:23:48;95096.53;;;4.98;76.71
71107;BME280;58763;47.982;11.516;2023-02-20T05:26:20;95091.66;;;5.06;76.44
71107;BME280;58763;47.982;11.516;2023-02-20T05:28:46;95091.28;;;5.03;76.04
71107;BME280;58763;47.982;11.516;2023-02-20T05:31:11;95091.50;;;4.89;76.00
71107;BME280;58763;47.982;11.516;2023-02-20T05:33:37;95093.75;;;4.74;76.77
71107;BME280;58763;47.982;11.516;2023-02-20T05:36:03;95096.50;;;4.86;76.01
71107;BME280;58763;47.982;11.516;2023-02-20T05:38:29;95099.06;;;4.93;75.76
71107;BME280;58763;47.982;11.516;2023-02-20T05:40:54;95098.34;;;4.85;75.78
71107;BME280;58763;47.982;11.516;2023-02-20T05:43:20;95101.44;;;5.01;74.84
71107;BME280;58763;47.982;11.516;2023-02-20T05:45:46;95109.81;;;5.04;74.97
71107;BME280;58763;47.982;11.516;2023-02-20T05:48:12;95105.19;;;5.11;74.44
71107;BME280;58763;47.982;11.516;2023-02-20T05:50:38;95111.97;;;5.25;73.67
71107;BME280;58763;47.982;11.516;2023-02-20T05:53:03;95115.81;;;5.18;73.55
71107;BME280;58763;47.982;11.516;2023-02-20T05:55:29;95115.59;;;5.19;73.71
71107;BME280;58763;47.982;11.516;2023-02-20T05:57:57;95108.69;;;5.12;73.38
71107;BME280;58763;47.982;11.516;2023-02-20T06:00:23;95112.47;;;5.22;73.24
71107;BME280;58763;47.982;11.516;2023-02-20T06:02:49;95111.16;;;5.13;72.85
71107;BME280;58763;47.982;11.516;2023-02-20T06:05:15;95127.81;;;5.15;72.85
71107;BME280;58763;47.982;11.516;2023-02-20T06:07:45;95126.06;;;5.21;72.76
71107;BME280;58763;47.982;11.516;2023-02-20T06:10:11;95125.66;;;4.94;73.25
71107;BME280;58763;47.982;11.516;2023-02-20T06:12:37;95120.34;;;4.76;73.76
71107;BME280;58763;47.982;11.516;2023-02-20T06:15:03;95122.69;;;4.54;74.51
71107;BME280;58763;47.982;11.516;2023-02-20T06:17:32;95126.97;;;4.55;74.66
71107;BME280;58763;47.982;11.516;2023-02-20T06:19:57;95131.84;;;4.47;74.91
71107;BME280;58763;47.982;11.516;2023-02-20T06:22:23;95139.97;;;4.40;75.25
71107;BME280;58763;47.982;11.516;2023-02-20T06:24:48;95141.75;;;4.28;75.32
71107;BME280;58763;47.982;11.516;2023-02-20T06:27:16;95140.56;;;4.24;75.31
71107;BME280;58763;47.982;11.516;2023-02-20T06:29:42;95156.63;;;4.24;75.55
71107;BME280;58763;47.982;11.516;2023-02-20T06:32:07;95147.69;;;4.30;74.49
71107;BME280;58763;47.982;11.516;2023-02-20T06:34:33;95149.41;;;4.43;74.03
71107;BME280;58763;47.982;11.516;2023-02-20T06:37:00;95145.63;;;4.50;73.76
71107;BME280;58763;47.982;11.516;2023-02-20T06:39:30;95146.94;;;4.41;74.05
71107;BME280;58763;47.982;11.516;2023-02-20T06:41:56;95148.00;;;4.40;73.93
71107;BME280;58763;47.982;11.516;2023-02-20T06:44:22;95156.84;;;4.41;73.52
71107;BME280;58763;47.982;11.516;2023-02-20T06:46:47;95144.25;;;4.41;73.67
71107;BME280;58763;47.982;11.516;2023-02-20T06:49:13;95146.50;;;4.44;73.87
71107;BME280;58763;47.982;11.516;2023-02-20T06:51:39;95151.75;;;4.51;73.72
71107;BME280;58763;47.982;11.516;2023-02-20T06:54:06;95144.53;;;4.69;73.52
71107;BME280;58763;47.982;11.516;2023-02-20T06:56:33;95149.59;;;4.77;73.76
71107;BME280;58763;47.982;11.516;2023-02-20T06:58:59;95144.63;;;4.93;73.08
71107;BME280;58763;47.982;11.516;2023-02-20T07:01:27;95146.97;;;4.89;72.77
71107;BME280;58763;47.982;11.516;2023-02-20T07:03:54;95148.66;;;5.02;73.36
71107;BME280;58763;47.982;11.516;2023-02-20T07:06:20;95144.19;;;4.96;74.10
71107;BME280;58763;47.982;11.516;2023-02-20T07:08:48;95143.88;;;5.04;73.58
71107;BME280;58763;47.982;11.516;2023-02-20T07:11:16;95153.09;;;5.08;73.25
71107;BME280;58763;47.982;11.516;2023-02-20T07:13:42;95146.81;;;5.14;73.50
71107;BME280;58763;47.982;11.516;2023-02-20T07:16:07;95148.91;;;5.12;72.46
71107;BME280;58763;47.982;11.516;2023-02-20T07:18:34;95151.03;;;5.21;71.93
71107;BME280;58763;47.982;11.516;2023-02-20T07:21:00;95157.25;;;5.33;72.21
71107;BME280;58763;47.982;11.516;2023-02-20T07:23:26;95148.41;;;5.44;71.66
71107;BME280;58763;47.982;11.516;2023-02-20T07:25:52;95147.50;;;5.50;71.64
71107;BME280;58763;47.982;11.516;2023-02-20T07:28:18;95157.56;;;5.67;70.93
71107;BME280;58763;47.982;11.516;2023-02-20T07:30:44;95157.44;;;5.73;71.45
71107;BME280;58763;47.982;11.516;2023-02-20T07:33:11;95163.63;;;5.74;71.62
71107;BME280;58763;47.982;11.516;2023-02-20T07:35:37;95157.31;;;5.80;72.38
71107;BME280;58763;47.982;11.516;2023-02-20T07:38:03;95161.06;;;5.79;72.88
71107;BME280;58763;47.982;11.516;2023-02-20T07:40:29;95159.44;;;5.78;72.80
71107;BME280;58763;47.982;11.516;2023-02-20T07:42:54;95162.44;;;5.81;73.13
71107;BME280;58763;47.982;11.516;2023-02-20T07:45:20;95162.22;;;5.83;72.88
71107;BME280;58763;47.982;11.516;2023-02-20T07:47:46;95165.38;;;5.80;71.95
71107;BME280;58763;47.982;11.516;2023-02-20T07:50:13;95169.03;;;5.85;72.64
71107;BME280;58763;47.982;11.516;2023-02-20T07:52:39;95169.22;;;5.84;72.38
71107;BME280;58763;47.982;11.516;2023-02-20T07:55:06;95171.59;;;5.92;72.31
71107;BME280;58763;47.982;11.516;2023-02-20T07:57:34;95174.16;;;5.98;70.88
71107;BME280;58763;47.982;11.516;2023-02-20T08:00:00;95169.25;;;5.95;70.69
71107;BME280;58763;47.982;11.516;2023-02-20T08:02:25;95162.72;;;6.03;70.63
71107;BME280;58763;47.982;11.516;2023-02-20T08:04:51;95159.22;;;6.02;69.92
71107;BME280;58763;47.982;11.516;2023-02-20T08:07:16;95151.66;;;5.99;69.86
71107;BME280;58763;47.982;11.516;2023-02-20T08:09:42;95154.09;;;6.01;69.71
71107;BME280;58763;47.982;11.516;2023-02-20T08:12:07;95155.38;;;5.98;70.10
71107;BME280;58763;47.982;11.516;2023-02-20T08:14:33;95156.53;;;6.02;70.70
71107;BME280;58763;47.982;11.516;2023-02-20T08:16:59;95149.75;;;6.11;70.60
71107;BME280;58763;47.982;11.516;2023-02-20T08:19:24;95152.13;;;6.08;70.17
71107;BME280;58763;47.982;11.516;2023-02-20T08:21:50;95133.19;;;6.14;71.06
71107;BME280;58763;47.982;11.516;2023-02-20T08:24:15;95129.78;;;6.19;71.11
71107;BME280;58763;47.982;11.516;2023-02-20T08:26:45;95122.44;;;6.14;71.58
71107;BME280;58763;47.982;11.516;2023-02-20T08:29:12;95112.53;;;6.15;71.58
71107;BME280;58763;47.982;11.516;2023-02-20T08:31:38;95118.94;;;6.14;71.49
71107;BME280;58763;47.982;11.516;2023-02-20T08:34:04;95108.69;;;6.22;71.50
71107;BME280;58763;47.982;11.516;2023-02-20T08:36:29;95117.44;;;6.30;71.78
71107;BME280;58763;47.982;11.516;2023-02-20T08:38:56;95111.31;;;6.46;70.42
71107;BME280;58763;47.982;11.516;2023-02-20T08:41:22;95116.25;;;6.65;70.64
71107;BME280;58763;47.982;11.516;2023-02-20T08:43:47;95111.59;;;6.61;69.24
71107;BME280;58763;47.982;11.516;2023-02-20T08:46:13;95109.28;;;6.64;69.01
71107;BME280;58763;47.982;11.516;2023-02-20T08:48:39;95114.06;;;6.62;68.75
71107;BME280;58763;47.982;11.516;2023-02-20T08:51:06;95121.41;;;6.67;68.85
71107;BME280;58763;47.982;11.516;2023-02-20T08:53:32;95115.09;;;6.73;68.30
71107;BME280;58763;47.982;11.516;2023-02-20T08:55:58;95107.47;;;6.70;69.22
71107;BME280;58763;47.982;11.516;2023-02-20T08:58:24;95106.91;;;6.68;69.22
71107;BME280;58763;47.982;11.516;2023-02-20T09:00:51;95095.06;;;6.80;69.60
71107;BME280;58763;47.982;11.516;2023-02-20T09:03:17;95089.75;;;6.97;68.97
71107;BME280;58763;47.982;11.516;2023-02-20T09:05:43;95086.34;;;7.02;68.23
71107;BME280;58763;47.982;11.516;2023-02-20T09:08:09;95082.72;;;6.96;67.57
71107;BME280;58763;47.982;11.516;2023-02-20T09:10:34;95095.78;;;6.76;68.39
71107;BME280;58763;47.982;11.516;2023-02-20T09:13:00;95092.09;;;6.65;69.75
71107;BME280;58763;47.982;11.516;2023-02-20T09:15:26;95093.63;;;6.89;68.50
71107;BME280;58763;47.982;11.516;2023-02-20T09:17:52;95097.06;;;7.30;68.65
71107;BME280;58763;47.982;11.516;2023-02-20T09:20:20;95089.66;;;7.53;67.17
71107;BME280;58763;47.982;11.516;2023-02-20T09:22:46;95080.50;;;7.88;68.24
71107;BME280;58763;47.982;11.516;2023-02-20T09:25:13;95066.91;;;8.16;65.66
71107;BME280;58763;47.982;11.516;2023-02-20T09:27:39;95065.13;;;8.43;64.78
71107;BME280;58763;47.982;11.516;2023-02-20T09:30:05;95054.84;;;8.62;64.25
71107;BME280;58763;47.982;11.516;2023-02-20T09:32:31;95061.06;;;8.62;62.67
71107;BME280;58763;47.982;11.516;2023-02-20T09:34:57;95056.09;;;8.54;61.60
71107;BME280;58763;47.982;11.516;2023-02-20T09:37:23;95055.84;;;8.77;63.22
71107;BME280;58763;47.982;11.516;2023-02-20T09:39:49;95042.84;;;9.01;60.99
71107;BME280;58763;47.982;11.516;2023-02-20T09:42:43;95042.69;;;9.13;60.73
71107;BME280;58763;47.982;11.516;2023-02-20T09:45:17;95047.19;;;9.29;60.30
71107;BME280;58763;47.982;11.516;2023-02-20T09:50:32;95052.16;;;9.42;61.10
71107;BME280;58763;47.982;11.516;2023-02-20T09:55:40;95053.19;;;9.67;59.80
71107;BME280;58763;47.982;11.516;2023-02-20T09:58:06;95054.59;;;9.75;59.09
71107;BME280;58763;47.982;11.516;2023-02-20T10:00:37;95046.34;;;9.97;58.98
71107;BME280;58763;47.982;11.516;2023-02-20T10:06:31;95044.22;;;9.99;58.81
71107;BME280;58763;47.982;11.516;2023-02-20T10:08:57;95025.34;;;10.09;59.65
71107;BME280;58763;47.982;11.516;2023-02-20T10:11:38;95012.97;;;10.13;58.20
71107;BME280;58763;47.982;11.516;2023-02-20T10:16:51;95009.34;;;10.44;57.52
71107;BME280;58763;47.982;11.516;2023-02-20T10:24:50;94995.31;;;10.52;55.13
71107;BME280;58763;47.982;11.516;2023-02-20T10:27:26;95001.03;;;10.66;56.47
71107;BME280;58763;47.982;11.516;2023-02-20T10:29:53;95004.56;;;10.71;56.56
71107;BME280;58763;47.982;11.516;2023-02-20T10:32:34;95002.97;;;10.80;55.44
71107;BME280;58763;47.982;11.516;2023-02-20T10:35:10;94994.09;;;11.05;55.89
71107;BME280;58763;47.982;11.516;2023-02-20T10:37:41;95000.06;;;11.22;56.54
71107;BME280;58763;47.982;11.516;2023-02-20T10:40:17;95002.53;;;11.34;54.56
71107;BME280;58763;47.982;11.516;2023-02-20T10:43:01;94999.28;;;11.32;53.73
71107;BME280;58763;47.982;11.516;2023-02-20T10:45:36;94993.84;;;11.17;52.94
71107;BME280;58763;47.982;11.516;2023-02-20T10:48:09;94992.75;;;11.28;53.53
71107;BME280;58763;47.982;11.516;2023-02-20T10:55:51;94982.72;;;11.18;54.03
71107;BME280;58763;47.982;11.516;2023-02-20T10:58:23;94975.44;;;11.03;53.81
71107;BME280;58763;47.982;11.516;2023-02-20T11:00:55;94977.59;;;11.11;54.09
71107;BME280;58763;47.982;11.516;2023-02-20T11:05:54;94964.59;;;11.74;54.95
71107;BME280;58763;47.982;11.516;2023-02-20T11:08:21;94965.41;;;11.90;53.22
71107;BME280;58763;47.982;11.516;2023-02-20T11:10:48;94961.59;;;11.86;51.42
71107;BME280;58763;47.982;11.516;2023-02-20T11:13:19;94949.97;;;11.70;51.16
71107;BME280;58763;47.982;11.516;2023-02-20T11:15:49;94954.56;;;11.74;52.04
71107;BME280;58763;47.982;11.516;2023-02-20T11:18:25;94944.81;;;11.78;52.65
71107;BME280;58763;47.982;11.516;2023-02-20T11:20:54;94945.31;;;12.01;51.21
71107;BME280;58763;47.982;11.516;2023-02-20T11:23:44;94940.69;;;12.06;50.87
71107;BME280;58763;47.982;11.516;2023-02-20T11:26:25;94935.41;;;12.35;51.76
71107;BME280;58763;47.982;11.516;2023-02-20T11:29:15;94931.81;;;12.49;50.97
71107;BME280;58763;47.982;11.516;2023-02-20T11:31:42;94921.81;;;12.45;49.97
71107;BME280;58763;47.982;11.516;2023-02-20T11:34:16;94917.03;;;12.76;49.83
71107;BME280;58763;47.982;11.516;2023-02-20T11:36:45;94910.69;;;12.90;49.88
71107;BME280;58763;47.982;11.516;2023-02-20T11:39:19;94903.28;;;13.01;49.83
71107;BME280;58763;47.982;11.516;2023-02-20T11:41:45;94900.44;;;13.21;49.93
71107;BME280;58763;47.982;11.516;2023-02-20T11:44:19;94916.13;;;13.29;49.05
71107;BME280;58763;47.982;11.516;2023-02-20T11:46:46;94906.16;;;13.20;48.88
71107;BME280;58763;47.982;11.516;2023-02-20T11:49:24;94908.75;;;13.35;49.24
71107;BME280;58763;47.982;11.516;2023-02-20T11:51:50;94897.72;;;13.50;49.33
71107;BME280;58763;47.982;11.516;2023-02-20T11:54:21;94895.91;;;13.69;48.69
71107;BME280;58763;47.982;11.516;2023-02-20T11:57:03;94892.84;;;13.75;46.88
71107;BME280;58763;47.982;11.516;2023-02-20T11:59:38;94898.72;;;13.59;47.94
71107;BME280;58763;47.982;11.516;2023-02-20T12:04:36;94890.31;;;13.32;48.21
71107;BME280;58763;47.982;11.516;2023-02-20T12:09:50;94859.66;;;13.55;48.29
71107;BME280;58763;47.982;11.516;2023-02-20T12:12:17;94857.34;;;13.67;47.36
71107;BME280;58763;47.982;11.516;2023-02-20T12:14:51;94865.97;;;13.74;46.22
71107;BME280;58763;47.982;11.516;2023-02-20T12:22:44;94853.19;;;13.98;44.41
71107;BME280;58763;47.982;11.516;2023-02-20T12:28:16;94837.66;;;14.22;44.43
71107;BME280;58763;47.982;11.516;2023-02-20T12:31:19;94841.47;;;14.21;42.82
71107;BME280;58763;47.982;11.516;2023-02-20T12:34:51;94837.28;;;14.29;42.80
71107;BME280;58763;47.982;11.516;2023-02-20T12:37:05;94832.19;;;14.46;43.07
71107;BME280;58763;47.982;11.516;2023-02-20T12:42:27;94823.34;;;14.35;42.67
71107;BME280;58763;47.982;11.516;2023-02-20T12:47:42;94816.88;;;14.50;40.82
71107;BME280;58763;47.982;11.516;2023-02-20T12:50:45;94823.72;;;14.47;41.38
71107;BME280;58763;47.982;11.516;2023-02-20T12:55:58;94803.06;;;14.46;41.48
71107;BME280;58763;47.982;11.516;2023-02-20T12:58:44;94799.09;;;14.39;41.90
71107;BME280;58763;47.982;11.516;2023-02-20T13:01:13;94791.00;;;14.34;41.03
71107;BME280;58763;47.982;11.516;2023-02-20T13:06:39;94798.97;;;14.30;42.09
71107;BME280;58763;47.982;11.516;2023-02-20T13:09:19;94794.88;;;14.09;42.38
71107;BME280;58763;47.982;11.516;2023-02-20T13:11:49;94786.16;;;14.07;42.01
71107;BME280;58763;47.982;11.516;2023-02-20T13:17:00;94791.28;;;14.14;41.21
71107;BME280;58763;47.982;11.516;2023-02-20T13:19:41;94785.91;;;14.27;40.42
71107;BME280;58763;47.982;11.516;2023-02-20T13:22:10;94784.75;;;14.33;39.56
71107;BME280;58763;47.982;11.516;2023-02-20T13:24:37;94796.44;;;14.34;39.97
71107;BME280;58763;47.982;11.516;2023-02-20T13:27:07;94789.91;;;14.35;39.01
71107;BME280;58763;47.982;11.516;2023-02-20T13:29:35;94789.97;;;14.30;39.78
71107;BME280;58763;47.982;11.516;2023-02-20T13:32:21;94787.19;;;14.35;39.38
71107;BME280;58763;47.982;11.516;2023-02-20T13:34:48;94781.97;;;14.38;38.08
71107;BME280;58763;47.982;11.516;2023-02-20T13:45:39;94772.59;;;14.26;38.04
71107;BME280;58763;47.982;11.516;2023-02-20T13:53:47;94770.88;;;14.35;38.73
71107;BME280;58763;47.982;11.516;2023-02-20T13:56:24;94771.53;;;14.45;39.17
71107;BME280;58763;47.982;11.516;2023-02-20T13:58:53;94769.91;;;14.44;39.33
71107;BME280;58763;47.982;11.516;2023-02-20T14:01:20;94766.00;;;14.50;38.76
71107;BME280;58763;47.982;11.516;2023-02-20T14:03:59;94770.63;;;14.31;38.33
71107;BME280;58763;47.982;11.516;2023-02-20T14:06:24;94765.75;;;14.28;36.64
71107;BME280;58763;47.982;11.516;2023-02-20T14:09:06;94768.75;;;14.08;37.50
71107;BME280;58763;47.982;11.516;2023-02-20T14:11:35;94767.78;;;13.99;37.66
71107;BME280;58763;47.982;11.516;2023-02-20T14:14:09;94765.66;;;13.96;37.84
71107;BME280;58763;47.982;11.516;2023-02-20T14:16:39;94762.66;;;13.98;37.19
71107;BME280;58763;47.982;11.516;2023-02-20T14:19:23;94751.81;;;14.16;37.75
71107;BME280;58763;47.982;11.516;2023-02-20T14:21:50;94754.53;;;14.16;37.66
71107;BME280;58763;47.982;11.516;2023-02-20T14:24:25;94745.16;;;14.22;37.62
71107;BME280;58763;47.982;11.516;2023-02-20T14:26:52;94744.41;;;13.98;36.12
71107;BME280;58763;47.982;11.516;2023-02-20T14:29:24;94748.53;;;13.96;36.80
71107;BME280;58763;47.982;11.516;2023-02-20T14:31:51;94739.09;;;13.69;37.21
71107;BME280;58763;47.982;11.516;2023-02-20T14:34:44;94733.81;;;13.78;37.22
71107;BME280;58763;47.982;11.516;2023-02-20T14:37:23;94728.31;;;13.83;37.00
71107;BME280;58763;47.982;11.516;2023-02-20T14:40:09;94729.66;;;13.85;36.50
71107;BME280;58763;47.982;11.516;2023-02-20T14:42:42;94722.66;;;13.98;36.91
71107;BME280;58763;47.982;11.516;2023-02-20T14:45:14;94731.56;;;13.85;37.25
71107;BME280;58763;47.982;11.516;2023-02-20T14:47:54;94726.84;;;13.72;37.48
71107;BME280;58763;47.982;11.516;2023-02-20T14:50:27;94717.44;;;13.64;38.67
71107;BME280;58763;47.982;11.516;2023-02-20T14:53:11;94724.47;;;13.65;38.09
71107;BME280;58763;47.982;11.516;2023-02-20T14:55:38;94717.19;;;13.61;38.27